Главная страница
METAR-TAF:

METAR-TAF

Аэропорты :

Хартум, Судан

широта: 15-36N, долгота: 032-33E, высота над уровнем моря: 382 м

Текущие метеонаблюдения

Эта сводка был подготовлена 13 минут назад, в 21:00 UTC
Ветер 11 Узел от северно-северо-западный
Температура 23°C
Влажность 20%
Давление 1017 hPa
Видимость 10 км и более
Нет облачности ниже 1500 м, и нет кучево-дождевой облачности

METAR: HSSS 092100Z 34011KT CAVOK 23/M01 Q1017 NOSIG

Время: 00:13 (21:13 UTC)

Прогноз

Эта сводка был подготовлена 4 часа и 13 минут назад, в 17:00 UTC
Прогноз действительный с 09-го 18 UTC до 10-го 24 UTC
Ветер 10 Узел от северно-северо-западный с порывами до 20 Узел
Видимость 10 км и более
Нет облачности ниже 1500 м, и нет кучево-дождевой облачности
временами
С 10-го 06 UTC до 10-го 09 UTC
Видимость: 6000 м

TAF: HSSS 091700Z 0918/1024 34010G20KT CAVOK TEMPO 1006/1009 6000

Метеонаблюдения и прогнозы для более 4000 аэропортов (сводки METAR и TAF).

Имеющиеся станции представлены на карте желтыми и красными точками.

Чтобы увидеть название станции, наведите на нее мышь.

Затем щелкните, чтобы увидеть метеонаблюдения и метеопрогнозы.

Управление картой: чтобы увеличить масштаб, щелкните зеленые кнопки с черным крестиком; чтобы уменьшить масштаб, щелкните зеленую кнопку с тире; для просмотра соседних карт щелкайте зеленые стрелки.


METAR-TAF: